createdAt,value
2023-05-14T00:03:06.612Z,15.00
2023-05-14T00:05:55.308Z,15.20
2023-05-14T00:08:44.015Z,14.80
2023-05-14T00:11:32.553Z,14.00
2023-05-14T00:14:21.570Z,15.00
2023-05-14T00:17:10.011Z,15.10
2023-05-14T00:19:59.576Z,15.80
2023-05-14T00:22:48.022Z,16.40
2023-05-14T00:25:36.965Z,17.10
2023-05-14T00:28:25.475Z,17.50
2023-05-14T00:31:14.236Z,16.00
2023-05-14T00:34:02.714Z,16.00
2023-05-14T00:36:51.595Z,15.70
2023-05-14T00:39:40.074Z,17.30
2023-05-14T00:42:28.993Z,16.40
2023-05-14T00:45:17.724Z,16.60
2023-05-14T00:48:06.812Z,16.90
2023-05-14T00:50:55.689Z,16.40
2023-05-14T00:53:44.986Z,17.60
2023-05-14T00:56:35.216Z,18.40
2023-05-14T00:59:23.922Z,17.70
2023-05-14T01:03:26.320Z,17.10
2023-05-14T01:06:33.268Z,18.80
2023-05-14T01:09:28.015Z,17.90
2023-05-14T01:12:41.107Z,19.60
2023-05-14T01:15:32.419Z,17.20
2023-05-14T01:21:40.938Z,16.50
2023-05-14T01:24:29.562Z,15.70
2023-05-14T01:27:21.912Z,16.70
2023-05-14T01:30:26.306Z,16.80
2023-05-14T01:33:21.057Z,17.30
2023-05-14T01:36:10.488Z,18.10
2023-05-14T01:39:01.281Z,18.50
2023-05-14T01:44:40.827Z,18.40
2023-05-14T01:47:29.813Z,21.60
2023-05-14T01:50:18.610Z,17.90
2023-05-14T01:53:07.305Z,17.40
2023-05-14T01:55:55.996Z,18.00
2023-05-14T01:58:44.569Z,18.20
2023-05-14T02:01:34.053Z,17.00
2023-05-14T02:04:22.849Z,16.80
2023-05-14T02:07:11.499Z,17.40
2023-05-14T02:10:00.347Z,19.30
2023-05-14T02:12:49.818Z,20.20
2023-05-14T02:15:38.925Z,19.60
2023-05-14T02:18:27.632Z,18.00
2023-05-14T02:21:16.612Z,15.90
2023-05-14T02:24:05.214Z,19.70
2023-05-14T02:26:54.306Z,20.90
2023-05-14T02:29:42.906Z,19.00
2023-05-14T02:32:31.589Z,16.80
2023-05-14T02:35:20.446Z,18.80
2023-05-14T02:38:08.937Z,18.50
2023-05-14T02:40:57.622Z,18.20
2023-05-14T02:43:46.251Z,15.80
2023-05-14T02:46:35.857Z,15.60
2023-05-14T02:49:24.484Z,16.60
2023-05-14T02:52:13.076Z,17.70
2023-05-14T02:55:02.392Z,16.50
2023-05-14T02:57:53.074Z,17.50
2023-05-14T03:00:41.669Z,16.40
2023-05-14T03:03:31.081Z,15.50
2023-05-14T03:06:20.266Z,16.60
2023-05-14T03:09:08.988Z,16.50
2023-05-14T03:11:57.630Z,15.60
2023-05-14T03:14:46.129Z,15.70
2023-05-14T03:17:34.720Z,14.30
2023-05-14T03:20:26.156Z,14.40
2023-05-14T03:23:15.490Z,14.00
2023-05-14T03:26:04.953Z,14.60
2023-05-14T03:28:53.780Z,21.40
2023-05-14T03:31:42.385Z,20.00
2023-05-14T03:34:31.051Z,15.10
2023-05-14T03:37:20.735Z,16.30
2023-05-14T03:40:09.727Z,15.30
2023-05-14T03:42:58.398Z,14.40
2023-05-14T03:45:47.186Z,17.90
2023-05-14T03:48:38.488Z,17.90
2023-05-14T03:51:27.255Z,21.60
2023-05-14T03:54:15.954Z,16.60
2023-05-14T03:57:06.388Z,15.40
2023-05-14T03:59:54.927Z,15.20
2023-05-14T04:02:44.185Z,15.50
2023-05-14T04:05:32.844Z,18.70
2023-05-14T04:08:21.585Z,17.50
2023-05-14T04:11:11.246Z,19.30
2023-05-14T04:14:00.153Z,23.20
2023-05-14T04:16:48.714Z,20.80
2023-05-14T04:19:37.562Z,15.60
2023-05-14T04:22:26.158Z,16.30
2023-05-14T04:25:15.122Z,18.80
2023-05-14T04:28:03.592Z,17.80
2023-05-14T04:30:52.674Z,16.50
2023-05-14T04:33:41.373Z,16.10
2023-05-14T04:36:30.031Z,15.60
2023-05-14T04:39:19.290Z,17.00
2023-05-14T04:42:08.187Z,16.20
2023-05-14T04:44:56.881Z,14.60
2023-05-14T04:47:46.788Z,13.70
2023-05-14T04:50:35.628Z,11.90
2023-05-14T04:53:24.468Z,10.60
2023-05-14T04:56:12.955Z,11.30
2023-05-14T04:59:01.614Z,12.20
2023-05-14T05:01:50.127Z,13.80
2023-05-14T05:04:39.135Z,12.60
2023-05-14T05:07:27.680Z,12.80
2023-05-14T05:10:16.538Z,13.70
2023-05-14T05:13:05.212Z,12.40
2023-05-14T05:15:54.145Z,12.10
2023-05-14T05:18:44.669Z,11.40
2023-05-14T05:21:33.514Z,11.90
2023-05-14T05:24:22.226Z,11.00
2023-05-14T05:27:10.689Z,11.60
2023-05-14T05:30:01.036Z,9.50
2023-05-14T05:32:49.649Z,9.70
2023-05-14T05:35:38.318Z,10.50
2023-05-14T05:38:26.804Z,9.60
2023-05-14T05:41:15.401Z,9.50
2023-05-14T05:44:04.134Z,8.30
2023-05-14T05:46:52.862Z,8.40
2023-05-14T05:49:41.486Z,8.60
2023-05-14T05:52:30.030Z,8.50
2023-05-14T05:55:19.230Z,8.00
2023-05-14T05:58:07.965Z,7.10
2023-05-14T06:00:58.221Z,7.50
2023-05-14T06:03:48.404Z,8.00
2023-05-14T06:06:37.279Z,8.50
2023-05-14T06:09:25.719Z,8.50
2023-05-14T06:12:14.540Z,9.90
2023-05-14T06:15:03.392Z,8.10
2023-05-14T06:17:52.038Z,8.70
2023-05-14T06:20:41.515Z,8.50
2023-05-14T06:23:30.112Z,8.70
2023-05-14T06:26:18.785Z,8.50
2023-05-14T06:29:07.436Z,9.40
2023-05-14T06:32:01.159Z,10.50
2023-05-14T06:34:49.876Z,7.50
2023-05-14T06:37:38.378Z,8.00
2023-05-14T06:40:27.151Z,8.20
2023-05-14T06:43:15.767Z,6.60
2023-05-14T06:46:04.679Z,7.10
2023-05-14T06:48:53.306Z,6.70
2023-05-14T06:51:42.036Z,6.20
2023-05-14T06:54:31.177Z,6.70
2023-05-14T06:57:21.132Z,7.70
2023-05-14T07:00:10.169Z,8.20
2023-05-14T07:02:58.804Z,7.40
2023-05-14T07:05:47.343Z,7.10
2023-05-14T07:08:36.172Z,7.10
2023-05-14T07:11:24.616Z,6.00
2023-05-14T07:14:13.300Z,5.40
2023-05-14T07:17:02.007Z,5.20
2023-05-14T07:19:51.354Z,5.10
2023-05-14T07:22:40.033Z,4.60
2023-05-14T07:25:28.862Z,4.40
2023-05-14T07:28:17.849Z,4.00
2023-05-14T07:31:09.064Z,3.70
2023-05-14T07:33:57.813Z,3.50
2023-05-14T07:36:47.230Z,3.60
2023-05-14T07:39:36.027Z,3.80
2023-05-14T07:42:35.321Z,4.40
2023-05-14T07:45:25.869Z,3.10
2023-05-14T07:48:14.543Z,3.10
2023-05-14T07:51:03.160Z,3.80
2023-05-14T07:53:51.693Z,3.50
2023-05-14T07:56:40.183Z,3.10
2023-05-14T07:59:28.803Z,3.40
2023-05-14T08:02:17.649Z,3.20
2023-05-14T08:05:07.044Z,3.10
2023-05-14T08:07:55.750Z,3.20
2023-05-14T08:10:44.832Z,3.60
2023-05-14T08:13:33.667Z,3.30
2023-05-14T08:16:22.389Z,2.60
2023-05-14T08:19:12.734Z,2.70
2023-05-14T08:22:01.543Z,2.70
2023-05-14T08:24:50.030Z,2.90
2023-05-14T08:27:38.757Z,2.70
2023-05-14T08:30:28.470Z,3.20
2023-05-14T08:33:18.200Z,2.90
2023-05-14T08:36:07.418Z,3.40
2023-05-14T08:38:56.072Z,3.80
2023-05-14T08:41:45.345Z,3.10
2023-05-14T08:44:44.663Z,2.60
2023-05-14T08:47:33.782Z,3.20
2023-05-14T08:50:23.663Z,3.60
2023-05-14T08:53:12.464Z,2.90
2023-05-14T08:56:02.265Z,2.80
2023-05-14T08:58:50.735Z,3.90
2023-05-14T09:01:44.620Z,2.90
2023-05-14T09:04:33.770Z,3.30
2023-05-14T09:07:22.520Z,2.20
2023-05-14T09:10:11.606Z,2.30
2023-05-14T09:13:00.406Z,2.30
2023-05-14T09:15:51.240Z,2.60
2023-05-14T09:18:44.518Z,2.40
2023-05-14T09:21:33.923Z,2.30
2023-05-14T09:24:29.116Z,2.80
2023-05-14T09:27:22.657Z,2.80
2023-05-14T09:30:13.154Z,2.10
2023-05-14T09:33:04.002Z,1.90
2023-05-14T09:35:58.249Z,2.00
2023-05-14T09:38:47.074Z,2.30
2023-05-14T09:41:35.543Z,2.30
2023-05-14T09:44:24.976Z,2.30
2023-05-14T09:47:15.476Z,2.10
2023-05-14T09:50:05.415Z,2.40
2023-05-14T09:52:55.773Z,2.00
2023-05-14T09:55:45.372Z,1.90
2023-05-14T09:58:33.950Z,2.30
2023-05-14T10:01:22.849Z,2.00
2023-05-14T10:04:12.652Z,2.00
2023-05-14T10:07:01.690Z,1.60
2023-05-14T10:09:59.403Z,1.50
2023-05-14T10:13:04.824Z,1.70
2023-05-14T10:16:16.615Z,1.60
2023-05-14T10:19:12.938Z,2.10
2023-05-14T10:22:05.785Z,1.80
2023-05-14T10:24:55.774Z,2.10
2023-05-14T10:27:44.767Z,1.70
2023-05-14T10:30:33.355Z,2.10
2023-05-14T10:33:22.488Z,1.80
2023-05-14T10:36:11.082Z,2.00
2023-05-14T10:39:04.426Z,1.90
2023-05-14T10:41:52.947Z,2.20
2023-05-14T10:44:56.820Z,3.30
2023-05-14T10:47:47.157Z,2.30
2023-05-14T10:50:35.882Z,3.50
2023-05-14T10:53:41.909Z,2.80
2023-05-14T10:56:30.612Z,3.30
2023-05-14T10:59:19.144Z,2.30
2023-05-14T11:02:20.412Z,3.00
2023-05-14T11:05:13.710Z,2.60
2023-05-14T11:08:06.213Z,2.10
2023-05-14T11:10:55.469Z,2.40
2023-05-14T11:13:45.049Z,2.20
2023-05-14T11:16:33.930Z,2.00
2023-05-14T11:19:22.646Z,2.20
2023-05-14T11:22:13.782Z,2.10
2023-05-14T11:25:02.508Z,1.90
2023-05-14T11:27:51.589Z,2.30
2023-05-14T11:30:40.160Z,2.00
2023-05-14T11:33:29.389Z,2.00
2023-05-14T11:36:17.900Z,2.40
2023-05-14T11:39:08.273Z,2.40
2023-05-14T11:41:58.045Z,2.50
2023-05-14T11:44:49.073Z,1.90
2023-05-14T11:47:38.192Z,1.90
2023-05-14T11:50:26.876Z,2.00
2023-05-14T11:53:28.073Z,1.90
2023-05-14T11:59:06.380Z,1.90
2023-05-14T12:01:58.892Z,1.60
2023-05-14T12:04:52.076Z,1.80
2023-05-14T12:07:41.940Z,1.80
2023-05-14T12:10:30.581Z,1.90
2023-05-14T12:13:20.024Z,1.70
2023-05-14T12:16:09.076Z,1.50
2023-05-14T12:19:02.185Z,1.70
2023-05-14T12:21:51.533Z,1.60
2023-05-14T12:24:40.339Z,1.50
2023-05-14T12:27:30.486Z,1.40
2023-05-14T12:30:22.568Z,1.40
2023-05-14T12:33:11.332Z,1.80
2023-05-14T12:36:10.066Z,2.30
2023-05-14T12:39:03.813Z,3.90
2023-05-14T12:41:52.736Z,2.00
2023-05-14T12:44:41.475Z,1.90
2023-05-14T12:47:30.105Z,1.90
2023-05-14T12:50:19.005Z,1.60
2023-05-14T12:53:08.083Z,1.30
2023-05-14T12:55:56.836Z,2.70
2023-05-14T12:58:46.817Z,2.10
2023-05-14T13:01:35.594Z,1.40
2023-05-14T13:04:24.117Z,1.70
2023-05-14T13:07:12.824Z,1.70
2023-05-14T13:10:01.434Z,1.40
2023-05-14T13:12:50.675Z,1.70
2023-05-14T13:15:39.183Z,1.60
2023-05-14T13:18:28.084Z,1.70
2023-05-14T13:21:16.648Z,2.20
2023-05-14T13:24:08.498Z,1.60
2023-05-14T13:26:57.060Z,1.30
2023-05-14T13:29:46.378Z,1.50
2023-05-14T13:32:35.004Z,1.90
2023-05-14T13:35:24.461Z,2.00
2023-05-14T13:38:13.359Z,1.60
2023-05-14T13:41:02.730Z,1.60
2023-05-14T13:43:51.436Z,1.50
2023-05-14T13:46:40.007Z,1.70
2023-05-14T13:49:30.162Z,1.70
2023-05-14T13:52:19.165Z,1.50
2023-05-14T13:55:08.334Z,1.40
2023-05-14T13:57:56.898Z,1.50
2023-05-14T14:00:45.524Z,1.70
2023-05-14T14:03:34.316Z,1.60
2023-05-14T14:06:22.854Z,1.60
2023-05-14T14:09:13.432Z,1.80
2023-05-14T14:12:05.514Z,1.90
2023-05-14T14:14:54.108Z,2.10
2023-05-14T14:17:42.798Z,1.90
2023-05-14T14:20:32.769Z,1.80
2023-05-14T14:23:21.406Z,2.10
2023-05-14T14:26:10.138Z,1.80
2023-05-14T14:28:58.834Z,1.90
2023-05-14T14:31:47.600Z,2.00
2023-05-14T14:34:36.191Z,1.90
2023-05-14T14:37:24.792Z,2.50
2023-05-14T14:40:13.367Z,2.10
2023-05-14T14:43:02.447Z,1.90
2023-05-14T14:45:51.086Z,2.50
2023-05-14T14:48:39.988Z,2.20
2023-05-14T14:51:30.328Z,1.90
2023-05-14T14:54:18.854Z,1.80
2023-05-14T14:57:07.464Z,2.20
2023-05-14T14:59:56.194Z,2.50
2023-05-14T15:02:44.815Z,2.10
2023-05-14T15:05:33.599Z,1.80
2023-05-14T15:08:29.879Z,1.90
2023-05-14T15:11:18.478Z,1.90
2023-05-14T15:14:07.244Z,1.90
2023-05-14T15:16:55.764Z,1.90
2023-05-14T15:19:44.513Z,2.00
2023-05-14T15:22:33.498Z,2.00
2023-05-14T15:25:23.872Z,2.00
2023-05-14T15:28:12.640Z,3.50
2023-05-14T15:31:02.628Z,2.20
2023-05-14T15:33:52.259Z,2.40
2023-05-14T15:36:41.036Z,2.30
2023-05-14T15:39:31.398Z,2.20
2023-05-14T15:45:13.683Z,2.20
2023-05-14T15:48:02.299Z,2.00
2023-05-14T15:50:51.637Z,2.50
2023-05-14T15:53:40.105Z,2.20
2023-05-14T15:56:29.688Z,2.00
2023-05-14T15:59:19.260Z,2.00
2023-05-14T16:02:09.207Z,2.20
2023-05-14T16:04:57.764Z,2.40
2023-05-14T16:07:46.573Z,2.50
2023-05-14T16:10:35.273Z,2.40
2023-05-14T16:13:24.247Z,2.30
2023-05-14T16:16:12.809Z,2.70
2023-05-14T16:19:01.508Z,2.20
2023-05-14T16:21:50.342Z,2.60
2023-05-14T16:24:38.921Z,2.90
2023-05-14T16:27:27.562Z,3.80
2023-05-14T16:30:16.523Z,2.90
2023-05-14T16:33:05.492Z,3.00
2023-05-14T16:35:54.303Z,3.50
2023-05-14T16:39:05.354Z,2.90
2023-05-14T16:41:51.974Z,3.20
2023-05-14T16:44:40.538Z,4.30
2023-05-14T16:47:29.483Z,5.10
2023-05-14T16:50:18.204Z,4.00
2023-05-14T16:53:06.956Z,4.60
2023-05-14T16:55:55.625Z,4.70
2023-05-14T16:58:44.247Z,4.00
2023-05-14T17:01:33.105Z,3.60
2023-05-14T17:04:22.106Z,3.60
2023-05-14T17:07:11.598Z,3.20
2023-05-14T17:10:00.792Z,3.10
2023-05-14T17:12:49.311Z,3.60
2023-05-14T17:15:55.727Z,3.50
2023-05-14T17:18:43.257Z,5.20
2023-05-14T17:21:31.884Z,4.30
2023-05-14T17:24:20.409Z,4.10
2023-05-14T17:27:09.257Z,4.40
2023-05-14T17:29:57.745Z,3.80
2023-05-14T17:32:47.067Z,5.00
2023-05-14T17:35:37.598Z,5.00
2023-05-14T17:38:26.329Z,4.90
2023-05-14T17:41:14.920Z,5.10
2023-05-14T17:44:03.710Z,6.40
2023-05-14T17:46:52.319Z,6.20
2023-05-14T17:49:41.084Z,5.20
2023-05-14T17:52:29.656Z,5.10
2023-05-14T17:55:19.252Z,6.10
2023-05-14T17:58:07.864Z,5.80
2023-05-14T18:00:57.127Z,5.40
2023-05-14T18:03:45.798Z,5.30
2023-05-14T18:06:34.482Z,5.60
2023-05-14T18:09:23.014Z,5.00
2023-05-14T18:12:12.007Z,4.80
2023-05-14T18:15:00.674Z,4.70
2023-05-14T18:17:49.708Z,5.20
2023-05-14T18:20:38.260Z,5.00
2023-05-14T18:23:27.024Z,5.10
2023-05-14T18:26:15.893Z,5.50
2023-05-14T18:29:04.685Z,6.80
2023-05-14T18:31:53.280Z,7.10
2023-05-14T18:34:41.864Z,8.00
2023-05-14T18:37:30.608Z,7.30
2023-05-14T18:40:19.422Z,7.30
2023-05-14T18:43:08.312Z,6.80
2023-05-14T18:45:57.143Z,6.80
2023-05-14T18:48:45.866Z,7.50
2023-05-14T18:51:34.455Z,8.50
2023-05-14T18:54:23.042Z,9.20
2023-05-14T18:57:13.588Z,9.70
2023-05-14T19:00:02.189Z,8.40
2023-05-14T19:02:51.042Z,6.70
2023-05-14T19:05:39.635Z,6.60
2023-05-14T19:08:28.481Z,6.90
2023-05-14T19:11:18.182Z,9.20
2023-05-14T19:14:07.010Z,8.40
2023-05-14T19:16:56.010Z,8.60
2023-05-14T19:19:45.006Z,9.20
2023-05-14T19:22:33.554Z,10.10
2023-05-14T19:25:22.120Z,8.20
2023-05-14T19:28:11.109Z,8.30
2023-05-14T19:30:59.984Z,8.90
2023-05-14T19:33:48.490Z,8.80
2023-05-14T19:36:37.155Z,8.40
2023-05-14T19:39:26.341Z,13.80
2023-05-14T19:42:14.958Z,10.70
2023-05-14T19:45:04.071Z,11.90
2023-05-14T19:47:52.946Z,9.40
2023-05-14T19:50:41.608Z,9.00
2023-05-14T19:53:30.575Z,8.40
2023-05-14T19:56:19.308Z,10.00
2023-05-14T19:59:07.946Z,9.50
2023-05-14T20:01:56.471Z,9.10
2023-05-14T20:04:46.067Z,7.00
2023-05-14T20:07:35.377Z,7.30
2023-05-14T20:10:24.560Z,6.10
2023-05-14T20:13:13.723Z,9.60
2023-05-14T20:16:03.261Z,8.50
2023-05-14T20:18:53.292Z,12.60
2023-05-14T20:21:42.084Z,8.20
2023-05-14T20:24:30.725Z,6.40
2023-05-14T20:27:19.434Z,7.30
2023-05-14T20:30:08.475Z,7.50
2023-05-14T20:32:57.268Z,8.10
2023-05-14T20:35:46.252Z,5.50
2023-05-14T20:38:35.253Z,5.50
2023-05-14T20:41:23.845Z,6.60
2023-05-14T20:44:12.496Z,5.70
2023-05-14T20:47:01.192Z,5.70
2023-05-14T20:49:50.518Z,6.30
2023-05-14T20:52:39.775Z,5.30
2023-05-14T20:55:28.431Z,5.20
2023-05-14T20:58:17.037Z,6.00
2023-05-14T21:01:07.968Z,6.30
2023-05-14T21:06:45.846Z,5.70
2023-05-14T21:09:34.408Z,6.10
2023-05-14T21:12:23.066Z,5.80
2023-05-14T21:15:11.618Z,5.60
2023-05-14T21:18:00.271Z,5.90
2023-05-14T21:20:48.881Z,5.40
2023-05-14T21:23:37.355Z,6.00
2023-05-14T21:26:26.385Z,4.90
2023-05-14T21:29:15.221Z,4.40
2023-05-14T21:32:04.715Z,4.70
2023-05-14T21:34:53.381Z,4.40
2023-05-14T21:37:42.109Z,4.70
2023-05-14T21:40:30.880Z,4.80
2023-05-14T21:43:19.661Z,4.20
2023-05-14T21:46:08.595Z,5.10
2023-05-14T21:48:57.136Z,4.00
2023-05-14T21:51:46.180Z,4.70
2023-05-14T21:54:34.792Z,4.60
2023-05-14T21:57:23.437Z,4.80
2023-05-14T22:00:13.356Z,5.00
2023-05-14T22:03:04.059Z,3.90
2023-05-14T22:05:53.289Z,4.40
2023-05-14T22:08:42.090Z,4.30
2023-05-14T22:11:30.565Z,4.10
2023-05-14T22:14:19.099Z,3.90
2023-05-14T22:17:07.693Z,3.90
2023-05-14T22:19:56.284Z,3.80
2023-05-14T22:22:47.566Z,4.90
2023-05-14T22:25:36.148Z,3.90
2023-05-14T22:28:24.604Z,4.10
2023-05-14T22:31:13.332Z,4.20
2023-05-14T22:34:01.811Z,4.00
2023-05-14T22:36:50.493Z,4.30
2023-05-14T22:39:38.989Z,3.80
2023-05-14T22:42:28.522Z,3.90
2023-05-14T22:45:17.471Z,4.50
2023-05-14T22:48:06.380Z,4.10
2023-05-14T22:50:55.278Z,3.60
2023-05-14T22:53:43.872Z,4.10
2023-05-14T22:56:32.804Z,4.40
2023-05-14T22:59:23.539Z,3.60
2023-05-14T23:02:12.750Z,4.30
2023-05-14T23:05:01.334Z,3.60
2023-05-14T23:07:49.820Z,3.90
2023-05-14T23:10:38.487Z,4.20
2023-05-14T23:13:27.035Z,3.90
2023-05-14T23:16:16.173Z,3.60
2023-05-14T23:19:04.972Z,4.10
2023-05-14T23:21:53.932Z,3.50
2023-05-14T23:24:42.529Z,4.20
2023-05-14T23:27:31.357Z,3.90
2023-05-14T23:30:20.125Z,4.10
2023-05-14T23:33:08.806Z,4.70
2023-05-14T23:35:57.607Z,4.40
2023-05-14T23:38:47.126Z,3.90
2023-05-14T23:41:35.782Z,4.50
2023-05-14T23:44:24.379Z,3.60
2023-05-14T23:47:13.266Z,4.70
2023-05-14T23:50:02.065Z,3.90
2023-05-14T23:52:54.915Z,4.20
2023-05-14T23:55:43.517Z,5.90
2023-05-14T23:58:32.986Z,5.40
